Huvudsida
METAR-TAF:

METAR-TAF

Flygplatser :

Friedrichshafens flygplats

Friedrichshafen, Tyskland

latitud: 47-40N, longitud: 009-31E, höjd: 416 m

Aktuellt väderrapport

Denna rapport gjordes för 34 minuter sedan, klockan 03:50 UTC
Vind 2 kt från ost/nordost
Temperatur 15°C
Fuktighet 82%
Tryck 1016 hPa
Sikt 10 km eller mer
Inga moln under 1 500 m eller inga cumulonimbus

METAR: EDNY 190350Z 07002KT CAVOK 15/12 Q1016

Tid: 06:24 (04:24 UTC)

Väderprognos

Denna rapport gjordes för 5 timmar och 24 minuter sedan, klockan 23:00 UTC
Prognos gäller från 19 kl. 00 UTC till 19 kl. 24 UTC
Vind 3 kt varierande vindriktning
Sikt 10 km eller mer
Inga moln under 1 500 m eller inga cumulonimbus

TAF: EDNY 182300Z 1900/1924 VRB03KT CAVOK

Aktuella väderrapporter och prognoser från 4000 flygplatser (METAR- och TAF-rapporter).

De tillgängliga stationerna syns som gula och röda prickar på kartan.

För musen över prickarna för att se namnen på stationerna.

Klicka sedan för att få väderrapporter och prognoser.

För att ändra kartan: Klicka på de gröna knapparna med ett svart kors på för att zooma in; den gröna knappen med ett streck på för att zooma ut; eller på de gröna pilarna för angränsande kartor.


METAR-TAF: